sensor_id;sensor_type;location;lat;lon;timestamp;pressure;altitude;pressure_sealevel;temperature;humidity
8061;BME280;4073;42.626;25.386;2022-08-19T00:01:28;96805.16;;;23.54;64.63
8061;BME280;4073;42.626;25.386;2022-08-19T00:03:57;96803.66;;;23.57;64.44
8061;BME280;4073;42.626;25.386;2022-08-19T00:06:22;96807.94;;;23.58;64.05
8061;BME280;4073;42.626;25.386;2022-08-19T00:08:48;96799.72;;;23.54;64.19
8061;BME280;4073;42.626;25.386;2022-08-19T00:11:13;96813.34;;;23.54;64.65
8061;BME280;4073;42.626;25.386;2022-08-19T00:13:39;96806.38;;;23.57;64.50
8061;BME280;4073;42.626;25.386;2022-08-19T00:16:06;96803.66;;;23.57;64.46
8061;BME280;4073;42.626;25.386;2022-08-19T00:18:32;96811.44;;;23.55;64.50
8061;BME280;4073;42.626;25.386;2022-08-19T00:20:58;96807.78;;;23.47;64.65
8061;BME280;4073;42.626;25.386;2022-08-19T00:23:25;96798.31;;;23.41;65.05
8061;BME280;4073;42.626;25.386;2022-08-19T00:25:51;96801.75;;;23.38;64.93
8061;BME280;4073;42.626;25.386;2022-08-19T00:28:17;96801.47;;;23.43;64.99
8061;BME280;4073;42.626;25.386;2022-08-19T00:30:43;96797.94;;;23.43;64.93
8061;BME280;4073;42.626;25.386;2022-08-19T00:33:09;96794.28;;;23.35;65.10
8061;BME280;4073;42.626;25.386;2022-08-19T00:35:35;96797.63;;;23.25;65.71
8061;BME280;4073;42.626;25.386;2022-08-19T00:38:02;96798.69;;;23.21;66.01
8061;BME280;4073;42.626;25.386;2022-08-19T00:40:28;96791.22;;;23.18;65.75
8061;BME280;4073;42.626;25.386;2022-08-19T00:42:53;96791.59;;;23.16;65.69
8061;BME280;4073;42.626;25.386;2022-08-19T00:45:22;96793.06;;;23.14;66.54
8061;BME280;4073;42.626;25.386;2022-08-19T00:47:48;96780.13;;;23.07;66.47
8061;BME280;4073;42.626;25.386;2022-08-19T00:50:15;96785.50;;;23.04;67.02
8061;BME280;4073;42.626;25.386;2022-08-19T00:52:45;96781.50;;;22.98;67.12
8061;BME280;4073;42.626;25.386;2022-08-19T00:55:18;96780.19;;;22.92;67.62
8061;BME280;4073;42.626;25.386;2022-08-19T00:57:55;96784.50;;;22.93;67.37
8061;BME280;4073;42.626;25.386;2022-08-19T01:00:23;96796.56;;;22.92;67.41
8061;BME280;4073;42.626;25.386;2022-08-19T01:02:48;96786.72;;;22.87;67.50
8061;BME280;4073;42.626;25.386;2022-08-19T01:05:18;96791.25;;;22.79;67.81
8061;BME280;4073;42.626;25.386;2022-08-19T01:07:46;96789.16;;;22.73;68.42
8061;BME280;4073;42.626;25.386;2022-08-19T01:10:16;96781.66;;;22.66;68.47
8061;BME280;4073;42.626;25.386;2022-08-19T01:12:45;96786.66;;;22.64;69.01
8061;BME280;4073;42.626;25.386;2022-08-19T01:15:12;96786.66;;;22.64;68.38
8061;BME280;4073;42.626;25.386;2022-08-19T01:17:40;96785.34;;;22.58;68.50
8061;BME280;4073;42.626;25.386;2022-08-19T01:20:12;96783.13;;;22.64;68.63
8061;BME280;4073;42.626;25.386;2022-08-19T01:25:07;96778.78;;;22.59;69.00
8061;BME280;4073;42.626;25.386;2022-08-19T01:27:44;96783.50;;;22.62;69.12
8061;BME280;4073;42.626;25.386;2022-08-19T01:30:23;96780.91;;;22.50;69.61
8061;BME280;4073;42.626;25.386;2022-08-19T01:32:50;96780.75;;;22.43;69.66
8061;BME280;4073;42.626;25.386;2022-08-19T01:35:17;96784.16;;;22.40;69.67
8061;BME280;4073;42.626;25.386;2022-08-19T01:37:48;96779.94;;;22.24;70.27
8061;BME280;4073;42.626;25.386;2022-08-19T01:40:15;96802.06;;;22.22;70.89
8061;BME280;4073;42.626;25.386;2022-08-19T01:42:41;96804.34;;;22.20;70.79
8061;BME280;4073;42.626;25.386;2022-08-19T01:45:07;96809.72;;;22.17;71.99
8061;BME280;4073;42.626;25.386;2022-08-19T01:47:35;96801.56;;;22.17;71.82
8061;BME280;4073;42.626;25.386;2022-08-19T01:50:01;96800.59;;;22.09;72.24
8061;BME280;4073;42.626;25.386;2022-08-19T01:52:27;96801.00;;;22.11;72.58
8061;BME280;4073;42.626;25.386;2022-08-19T01:54:53;96807.25;;;22.12;72.03
8061;BME280;4073;42.626;25.386;2022-08-19T01:57:18;96804.72;;;22.03;72.65
8061;BME280;4073;42.626;25.386;2022-08-19T01:59:45;96810.44;;;21.98;72.59
8061;BME280;4073;42.626;25.386;2022-08-19T02:02:10;96810.78;;;21.97;72.96
8061;BME280;4073;42.626;25.386;2022-08-19T02:04:36;96821.69;;;21.97;72.53
8061;BME280;4073;42.626;25.386;2022-08-19T02:07:06;96819.66;;;21.94;72.63
8061;BME280;4073;42.626;25.386;2022-08-19T02:09:33;96815.97;;;21.86;72.62
8061;BME280;4073;42.626;25.386;2022-08-19T02:11:59;96820.97;;;21.84;72.76
8061;BME280;4073;42.626;25.386;2022-08-19T02:14:24;96823.94;;;21.64;73.84
8061;BME280;4073;42.626;25.386;2022-08-19T02:16:50;96828.41;;;21.56;73.87
8061;BME280;4073;42.626;25.386;2022-08-19T02:19:15;96827.78;;;21.47;74.16
8061;BME280;4073;42.626;25.386;2022-08-19T02:21:41;96825.78;;;21.44;74.79
8061;BME280;4073;42.626;25.386;2022-08-19T02:24:06;96822.34;;;21.47;74.50
8061;BME280;4073;42.626;25.386;2022-08-19T02:26:32;96817.34;;;21.49;74.52
8061;BME280;4073;42.626;25.386;2022-08-19T02:28:58;96821.03;;;21.57;74.41
8061;BME280;4073;42.626;25.386;2022-08-19T02:31:25;96818.84;;;21.62;73.90
8061;BME280;4073;42.626;25.386;2022-08-19T02:33:50;96820.75;;;21.62;73.86
8061;BME280;4073;42.626;25.386;2022-08-19T02:36:17;96824.97;;;21.59;74.08
8061;BME280;4073;42.626;25.386;2022-08-19T02:38:45;96821.38;;;21.55;74.37
8061;BME280;4073;42.626;25.386;2022-08-19T02:41:17;96816.38;;;21.57;74.06
8061;BME280;4073;42.626;25.386;2022-08-19T02:43:43;96808.41;;;21.64;73.76
8061;BME280;4073;42.626;25.386;2022-08-19T02:46:20;96812.06;;;21.72;73.77
8061;BME280;4073;42.626;25.386;2022-08-19T02:48:48;96824.66;;;21.76;73.67
8061;BME280;4073;42.626;25.386;2022-08-19T02:51:26;96834.75;;;21.76;73.78
8061;BME280;4073;42.626;25.386;2022-08-19T02:53:52;96842.00;;;21.72;73.79
8061;BME280;4073;42.626;25.386;2022-08-19T02:56:19;96839.56;;;21.67;73.78
8061;BME280;4073;42.626;25.386;2022-08-19T02:58:44;96835.50;;;21.61;74.50
8061;BME280;4073;42.626;25.386;2022-08-19T03:01:11;96837.59;;;21.52;74.37
8061;BME280;4073;42.626;25.386;2022-08-19T03:03:44;96830.59;;;21.51;74.67
8061;BME280;4073;42.626;25.386;2022-08-19T03:06:14;96832.84;;;21.49;74.39
8061;BME280;4073;42.626;25.386;2022-08-19T03:08:43;96837.94;;;21.50;74.17
8061;BME280;4073;42.626;25.386;2022-08-19T03:11:35;96842.28;;;21.51;74.51
8061;BME280;4073;42.626;25.386;2022-08-19T03:14:01;96836.03;;;21.51;74.21
8061;BME280;4073;42.626;25.386;2022-08-19T03:16:29;96836.72;;;21.48;74.48
8061;BME280;4073;42.626;25.386;2022-08-19T03:18:56;96845.22;;;21.46;74.48
8061;BME280;4073;42.626;25.386;2022-08-19T03:21:26;96849.19;;;21.49;74.56
8061;BME280;4073;42.626;25.386;2022-08-19T03:23:56;96853.84;;;21.48;74.45
8061;BME280;4073;42.626;25.386;2022-08-19T03:26:22;96858.06;;;21.46;74.36
8061;BME280;4073;42.626;25.386;2022-08-19T03:28:47;96853.13;;;21.36;74.44
8061;BME280;4073;42.626;25.386;2022-08-19T03:31:17;96867.75;;;21.31;75.10
8061;BME280;4073;42.626;25.386;2022-08-19T03:33:43;96869.41;;;21.20;75.30
8061;BME280;4073;42.626;25.386;2022-08-19T03:36:19;96870.84;;;21.18;75.85
8061;BME280;4073;42.626;25.386;2022-08-19T03:38:48;96878.75;;;21.07;76.12
8061;BME280;4073;42.626;25.386;2022-08-19T03:41:20;96878.03;;;21.10;76.19
8061;BME280;4073;42.626;25.386;2022-08-19T03:43:46;96871.47;;;21.11;75.88
8061;BME280;4073;42.626;25.386;2022-08-19T03:46:17;96874.41;;;21.06;76.12
8061;BME280;4073;42.626;25.386;2022-08-19T03:48:46;96873.31;;;21.07;76.23
8061;BME280;4073;42.626;25.386;2022-08-19T03:51:21;96858.09;;;21.06;76.33
8061;BME280;4073;42.626;25.386;2022-08-19T03:53:47;96870.84;;;21.18;76.56
8061;BME280;4073;42.626;25.386;2022-08-19T03:56:13;96866.69;;;21.20;76.22
8061;BME280;4073;42.626;25.386;2022-08-19T03:58:39;96862.38;;;21.19;76.10
8061;BME280;4073;42.626;25.386;2022-08-19T04:01:11;96864.66;;;21.17;76.08
8061;BME280;4073;42.626;25.386;2022-08-19T04:03:38;96862.28;;;21.16;76.47
8061;BME280;4073;42.626;25.386;2022-08-19T04:06:14;96867.03;;;21.19;76.56
8061;BME280;4073;42.626;25.386;2022-08-19T04:08:44;96862.47;;;21.23;76.12
8061;BME280;4073;42.626;25.386;2022-08-19T04:11:13;96867.31;;;21.29;76.40
8061;BME280;4073;42.626;25.386;2022-08-19T04:13:39;96857.50;;;21.40;75.83
8061;BME280;4073;42.626;25.386;2022-08-19T04:16:05;96863.56;;;21.49;75.37
8061;BME280;4073;42.626;25.386;2022-08-19T04:18:32;96869.72;;;21.62;75.03
8061;BME280;4073;42.626;25.386;2022-08-19T04:20:58;96873.44;;;21.69;74.74
8061;BME280;4073;42.626;25.386;2022-08-19T04:23:24;96870.91;;;21.76;73.91
8061;BME280;4073;42.626;25.386;2022-08-19T04:25:50;96866.00;;;21.82;73.96
8061;BME280;4073;42.626;25.386;2022-08-19T04:28:16;96869.19;;;21.84;74.05
8061;BME280;4073;42.626;25.386;2022-08-19T04:30:44;96866.88;;;21.86;73.82
8061;BME280;4073;42.626;25.386;2022-08-19T04:33:12;96872.06;;;21.91;74.02
8061;BME280;4073;42.626;25.386;2022-08-19T04:35:40;96869.44;;;21.94;73.90
8061;BME280;4073;42.626;25.386;2022-08-19T04:38:06;96864.09;;;21.98;73.99
8061;BME280;4073;42.626;25.386;2022-08-19T04:40:32;96860.81;;;22.08;73.69
8061;BME280;4073;42.626;25.386;2022-08-19T04:43:16;96860.66;;;22.16;73.90
8061;BME280;4073;42.626;25.386;2022-08-19T04:45:43;96856.34;;;22.15;74.34
8061;BME280;4073;42.626;25.386;2022-08-19T04:48:09;96853.97;;;22.29;74.69
8061;BME280;4073;42.626;25.386;2022-08-19T04:50:35;96851.03;;;22.38;74.88
8061;BME280;4073;42.626;25.386;2022-08-19T04:53:00;96858.00;;;22.51;74.54
8061;BME280;4073;42.626;25.386;2022-08-19T04:55:26;96850.84;;;22.46;75.20
8061;BME280;4073;42.626;25.386;2022-08-19T04:57:52;96847.97;;;22.55;76.23
8061;BME280;4073;42.626;25.386;2022-08-19T05:00:17;96849.22;;;22.61;74.22
8061;BME280;4073;42.626;25.386;2022-08-19T05:02:43;96852.91;;;22.68;74.62
8061;BME280;4073;42.626;25.386;2022-08-19T05:05:09;96862.28;;;22.87;74.20
8061;BME280;4073;42.626;25.386;2022-08-19T05:07:34;96864.56;;;23.04;73.29
8061;BME280;4073;42.626;25.386;2022-08-19T05:10:00;96853.41;;;23.28;74.16
8061;BME280;4073;42.626;25.386;2022-08-19T05:12:26;96857.81;;;23.55;72.88
8061;BME280;4073;42.626;25.386;2022-08-19T05:14:53;96860.69;;;23.84;71.20
8061;BME280;4073;42.626;25.386;2022-08-19T05:17:19;96851.81;;;24.13;70.51
8061;BME280;4073;42.626;25.386;2022-08-19T05:19:45;96864.34;;;24.40;69.30
8061;BME280;4073;42.626;25.386;2022-08-19T05:22:29;96856.59;;;24.68;68.34
8061;BME280;4073;42.626;25.386;2022-08-19T05:24:58;96857.72;;;24.93;67.85
8061;BME280;4073;42.626;25.386;2022-08-19T05:27:25;96858.31;;;25.09;65.47
8061;BME280;4073;42.626;25.386;2022-08-19T05:29:50;96860.53;;;25.30;66.55
8061;BME280;4073;42.626;25.386;2022-08-19T05:32:16;96864.72;;;25.57;65.42
8061;BME280;4073;42.626;25.386;2022-08-19T05:34:41;96868.06;;;25.77;65.08
8061;BME280;4073;42.626;25.386;2022-08-19T05:37:07;96864.78;;;25.97;66.27
8061;BME280;4073;42.626;25.386;2022-08-19T05:39:35;96868.00;;;26.10;65.38
8061;BME280;4073;42.626;25.386;2022-08-19T05:42:05;96875.56;;;26.27;63.87
8061;BME280;4073;42.626;25.386;2022-08-19T05:44:34;96865.09;;;26.36;64.40
8061;BME280;4073;42.626;25.386;2022-08-19T05:47:01;96868.72;;;26.54;62.25
8061;BME280;4073;42.626;25.386;2022-08-19T05:49:28;96867.31;;;26.74;59.60
8061;BME280;4073;42.626;25.386;2022-08-19T05:51:55;96867.78;;;26.86;59.32
8061;BME280;4073;42.626;25.386;2022-08-19T05:54:21;96860.03;;;27.06;60.30
8061;BME280;4073;42.626;25.386;2022-08-19T05:56:48;96857.81;;;27.29;58.19
8061;BME280;4073;42.626;25.386;2022-08-19T05:59:15;96862.97;;;27.52;58.90
8061;BME280;4073;42.626;25.386;2022-08-19T06:01:44;96855.19;;;27.71;57.18
8061;BME280;4073;42.626;25.386;2022-08-19T06:04:11;96868.22;;;27.95;55.54
8061;BME280;4073;42.626;25.386;2022-08-19T06:06:38;96867.44;;;28.09;54.90
8061;BME280;4073;42.626;25.386;2022-08-19T06:09:06;96868.63;;;28.25;55.82
8061;BME280;4073;42.626;25.386;2022-08-19T06:11:47;96873.34;;;28.46;54.44
8061;BME280;4073;42.626;25.386;2022-08-19T06:14:16;96865.47;;;28.69;53.02
8061;BME280;4073;42.626;25.386;2022-08-19T06:16:43;96861.50;;;28.87;53.16
8061;BME280;4073;42.626;25.386;2022-08-19T06:19:13;96866.13;;;29.15;51.70
8061;BME280;4073;42.626;25.386;2022-08-19T06:21:40;96861.75;;;29.28;50.15
8061;BME280;4073;42.626;25.386;2022-08-19T06:24:09;96858.94;;;29.45;49.01
8061;BME280;4073;42.626;25.386;2022-08-19T06:26:37;96864.00;;;29.61;48.28
8061;BME280;4073;42.626;25.386;2022-08-19T06:29:04;96868.09;;;29.97;48.74
8061;BME280;4073;42.626;25.386;2022-08-19T06:31:32;96869.16;;;30.10;47.33
8061;BME280;4073;42.626;25.386;2022-08-19T06:34:00;96867.91;;;30.25;46.06
8061;BME280;4073;42.626;25.386;2022-08-19T06:36:36;96862.19;;;30.46;45.24
8061;BME280;4073;42.626;25.386;2022-08-19T06:39:08;96871.03;;;30.71;45.02
8061;BME280;4073;42.626;25.386;2022-08-19T06:41:39;96863.66;;;31.02;43.52
8061;BME280;4073;42.626;25.386;2022-08-19T06:44:06;96860.63;;;31.23;42.75
8061;BME280;4073;42.626;25.386;2022-08-19T06:46:32;96860.88;;;31.35;42.75
8061;BME280;4073;42.626;25.386;2022-08-19T06:48:57;96865.31;;;31.59;41.12
8061;BME280;4073;42.626;25.386;2022-08-19T06:51:24;96862.66;;;31.82;41.75
8061;BME280;4073;42.626;25.386;2022-08-19T06:53:51;96862.13;;;31.91;40.23
8061;BME280;4073;42.626;25.386;2022-08-19T06:56:20;96851.03;;;31.94;39.78
8061;BME280;4073;42.626;25.386;2022-08-19T06:58:47;96848.66;;;32.20;39.66
8061;BME280;4073;42.626;25.386;2022-08-19T07:01:15;96858.78;;;32.03;40.09
8061;BME280;4073;42.626;25.386;2022-08-19T07:03:41;96861.63;;;32.23;39.20
8061;BME280;4073;42.626;25.386;2022-08-19T07:06:12;96867.81;;;32.34;38.98
8061;BME280;4073;42.626;25.386;2022-08-19T07:08:39;96859.34;;;32.44;38.25
8061;BME280;4073;42.626;25.386;2022-08-19T07:11:07;96861.44;;;32.60;37.97
8061;BME280;4073;42.626;25.386;2022-08-19T07:13:34;96868.34;;;32.71;38.63
8061;BME280;4073;42.626;25.386;2022-08-19T07:16:07;96857.19;;;32.75;38.28
8061;BME280;4073;42.626;25.386;2022-08-19T07:18:33;96866.63;;;33.00;38.52
8061;BME280;4073;42.626;25.386;2022-08-19T07:21:07;96867.50;;;33.17;38.46
8061;BME280;4073;42.626;25.386;2022-08-19T07:23:33;96868.06;;;33.28;38.62
8061;BME280;4073;42.626;25.386;2022-08-19T07:26:06;96862.59;;;33.63;37.69
8061;BME280;4073;42.626;25.386;2022-08-19T07:28:32;96873.59;;;33.67;36.06
8061;BME280;4073;42.626;25.386;2022-08-19T07:30:57;96874.19;;;33.94;35.71
8061;BME280;4073;42.626;25.386;2022-08-19T07:33:23;96867.31;;;34.02;35.75
8061;BME280;4073;42.626;25.386;2022-08-19T07:35:48;96878.78;;;34.52;35.27
8061;BME280;4073;42.626;25.386;2022-08-19T07:38:15;96878.22;;;34.89;34.47
8061;BME280;4073;42.626;25.386;2022-08-19T07:40:40;96875.25;;;34.96;33.54
8061;BME280;4073;42.626;25.386;2022-08-19T07:43:06;96876.97;;;35.06;33.42
8061;BME280;4073;42.626;25.386;2022-08-19T07:45:31;96881.72;;;34.93;33.53
8061;BME280;4073;42.626;25.386;2022-08-19T07:47:57;96873.63;;;34.99;33.11
8061;BME280;4073;42.626;25.386;2022-08-19T07:50:23;96878.03;;;34.96;32.65
8061;BME280;4073;42.626;25.386;2022-08-19T07:52:49;96867.19;;;35.02;32.67
8061;BME280;4073;42.626;25.386;2022-08-19T07:55:17;96872.41;;;35.28;32.72
8061;BME280;4073;42.626;25.386;2022-08-19T07:57:43;96862.13;;;35.41;31.80
8061;BME280;4073;42.626;25.386;2022-08-19T08:00:09;96865.94;;;35.60;31.84
8061;BME280;4073;42.626;25.386;2022-08-19T08:02:34;96862.81;;;35.58;31.62
8061;BME280;4073;42.626;25.386;2022-08-19T08:05:00;96853.59;;;35.48;31.43
8061;BME280;4073;42.626;25.386;2022-08-19T08:07:54;96860.00;;;35.86;31.19
8061;BME280;4073;42.626;25.386;2022-08-19T08:10:39;96852.97;;;35.94;30.20
8061;BME280;4073;42.626;25.386;2022-08-19T08:13:05;96849.44;;;35.81;30.28
8061;BME280;4073;42.626;25.386;2022-08-19T08:15:31;96857.66;;;35.97;30.14
8061;BME280;4073;42.626;25.386;2022-08-19T08:17:57;96859.91;;;36.02;30.05
8061;BME280;4073;42.626;25.386;2022-08-19T08:20:23;96834.84;;;36.15;29.94
8061;BME280;4073;42.626;25.386;2022-08-19T08:22:49;96837.34;;;36.72;29.40
8061;BME280;4073;42.626;25.386;2022-08-19T08:25:34;96848.66;;;37.12;28.67
8061;BME280;4073;42.626;25.386;2022-08-19T08:28:02;96845.91;;;37.33;28.31
8061;BME280;4073;42.626;25.386;2022-08-19T08:30:30;96845.25;;;37.29;28.71
8061;BME280;4073;42.626;25.386;2022-08-19T08:32:57;96845.94;;;36.99;28.57
8061;BME280;4073;42.626;25.386;2022-08-19T08:35:23;96848.78;;;36.87;29.22
8061;BME280;4073;42.626;25.386;2022-08-19T08:37:51;96843.75;;;36.22;29.81
8061;BME280;4073;42.626;25.386;2022-08-19T08:40:42;96848.38;;;35.63;30.40
8061;BME280;4073;42.626;25.386;2022-08-19T08:43:22;96856.81;;;35.59;31.21
8061;BME280;4073;42.626;25.386;2022-08-19T08:46:05;96844.31;;;35.92;30.36
8061;BME280;4073;42.626;25.386;2022-08-19T08:48:46;96847.94;;;35.77;30.70
8061;BME280;4073;42.626;25.386;2022-08-19T08:54:25;96841.28;;;36.24;30.21
8061;BME280;4073;42.626;25.386;2022-08-19T08:56:54;96852.84;;;36.35;29.74
8061;BME280;4073;42.626;25.386;2022-08-19T08:59:35;96840.53;;;36.71;29.80
8061;BME280;4073;42.626;25.386;2022-08-19T09:02:03;96834.84;;;36.87;28.44
8061;BME280;4073;42.626;25.386;2022-08-19T09:04:29;96844.81;;;36.75;28.84
8061;BME280;4073;42.626;25.386;2022-08-19T09:10:32;96841.38;;;37.14;28.31
8061;BME280;4073;42.626;25.386;2022-08-19T09:15:40;96838.38;;;37.64;27.77
8061;BME280;4073;42.626;25.386;2022-08-19T09:18:09;96842.44;;;37.72;26.72
8061;BME280;4073;42.626;25.386;2022-08-19T09:20:35;96835.28;;;37.19;27.72
8061;BME280;4073;42.626;25.386;2022-08-19T09:23:00;96838.09;;;37.28;28.10
8061;BME280;4073;42.626;25.386;2022-08-19T09:25:26;96844.19;;;37.57;27.70
8061;BME280;4073;42.626;25.386;2022-08-19T09:27:53;96842.84;;;37.92;27.54
8061;BME280;4073;42.626;25.386;2022-08-19T09:30:25;96843.78;;;38.38;26.42
8061;BME280;4073;42.626;25.386;2022-08-19T09:32:52;96835.28;;;38.41;26.59
8061;BME280;4073;42.626;25.386;2022-08-19T09:35:19;96839.84;;;38.57;26.07
8061;BME280;4073;42.626;25.386;2022-08-19T09:37:47;96844.84;;;39.16;25.61
8061;BME280;4073;42.626;25.386;2022-08-19T09:40:14;96844.22;;;39.03;25.82
8061;BME280;4073;42.626;25.386;2022-08-19T09:42:40;96834.00;;;39.09;25.76
8061;BME280;4073;42.626;25.386;2022-08-19T09:45:09;96839.28;;;38.98;25.49
8061;BME280;4073;42.626;25.386;2022-08-19T09:47:35;96833.66;;;39.43;24.78
8061;BME280;4073;42.626;25.386;2022-08-19T09:50:05;96832.59;;;38.96;25.05
8061;BME280;4073;42.626;25.386;2022-08-19T09:52:31;96837.84;;;38.94;24.58
8061;BME280;4073;42.626;25.386;2022-08-19T09:54:56;96828.25;;;39.04;25.27
8061;BME280;4073;42.626;25.386;2022-08-19T09:57:22;96823.44;;;39.04;24.75
8061;BME280;4073;42.626;25.386;2022-08-19T09:59:47;96830.56;;;39.14;24.82
8061;BME280;4073;42.626;25.386;2022-08-19T10:02:13;96827.31;;;39.07;24.70
8061;BME280;4073;42.626;25.386;2022-08-19T10:04:38;96833.53;;;39.20;24.65
8061;BME280;4073;42.626;25.386;2022-08-19T10:07:23;96822.97;;;38.97;24.92
8061;BME280;4073;42.626;25.386;2022-08-19T10:09:48;96824.47;;;38.89;24.98
8061;BME280;4073;42.626;25.386;2022-08-19T10:12:14;96823.75;;;38.21;25.12
8061;BME280;4073;42.626;25.386;2022-08-19T10:14:40;96824.88;;;38.02;25.57
8061;BME280;4073;42.626;25.386;2022-08-19T10:17:06;96818.75;;;37.77;26.13
8061;BME280;4073;42.626;25.386;2022-08-19T10:19:32;96834.84;;;37.73;26.12
8061;BME280;4073;42.626;25.386;2022-08-19T10:22:03;96820.22;;;37.90;26.07
8061;BME280;4073;42.626;25.386;2022-08-19T10:24:29;96820.75;;;38.07;25.68
8061;BME280;4073;42.626;25.386;2022-08-19T10:26:56;96816.94;;;38.22;25.35
8061;BME280;4073;42.626;25.386;2022-08-19T10:29:21;96825.22;;;38.53;25.26
8061;BME280;4073;42.626;25.386;2022-08-19T10:31:47;96814.31;;;38.46;24.94
8061;BME280;4073;42.626;25.386;2022-08-19T10:34:12;96799.91;;;38.47;25.40
8061;BME280;4073;42.626;25.386;2022-08-19T10:36:38;96813.44;;;38.58;25.41
8061;BME280;4073;42.626;25.386;2022-08-19T10:39:07;96799.81;;;38.78;25.02
8061;BME280;4073;42.626;25.386;2022-08-19T10:41:35;96801.34;;;38.61;24.86
8061;BME280;4073;42.626;25.386;2022-08-19T10:44:07;96804.75;;;38.65;24.44
8061;BME280;4073;42.626;25.386;2022-08-19T10:46:36;96812.69;;;38.76;24.94
8061;BME280;4073;42.626;25.386;2022-08-19T10:49:04;96804.50;;;38.99;24.60
8061;BME280;4073;42.626;25.386;2022-08-19T10:51:30;96798.09;;;38.81;24.51
8061;BME280;4073;42.626;25.386;2022-08-19T10:54:15;96809.91;;;39.12;24.29
8061;BME280;4073;42.626;25.386;2022-08-19T10:56:40;96801.22;;;39.10;24.19
8061;BME280;4073;42.626;25.386;2022-08-19T10:59:23;96801.06;;;39.22;24.75
8061;BME280;4073;42.626;25.386;2022-08-19T11:01:50;96798.69;;;39.48;24.37
8061;BME280;4073;42.626;25.386;2022-08-19T11:04:18;96797.53;;;39.72;23.78
8061;BME280;4073;42.626;25.386;2022-08-19T11:06:45;96791.84;;;39.49;24.17
8061;BME280;4073;42.626;25.386;2022-08-19T11:09:19;96787.81;;;39.91;23.70
8061;BME280;4073;42.626;25.386;2022-08-19T11:11:45;96785.28;;;41.20;22.63
8061;BME280;4073;42.626;25.386;2022-08-19T11:14:14;96789.53;;;42.23;21.65
8061;BME280;4073;42.626;25.386;2022-08-19T11:16:41;96788.09;;;42.13;21.33
8061;BME280;4073;42.626;25.386;2022-08-19T11:19:09;96791.94;;;41.66;20.76
8061;BME280;4073;42.626;25.386;2022-08-19T11:21:40;96778.00;;;41.43;20.82
8061;BME280;4073;42.626;25.386;2022-08-19T11:24:13;96787.38;;;41.69;21.07
8061;BME280;4073;42.626;25.386;2022-08-19T11:26:41;96784.31;;;42.16;20.81
8061;BME280;4073;42.626;25.386;2022-08-19T11:29:09;96779.00;;;42.18;21.11
8061;BME280;4073;42.626;25.386;2022-08-19T11:31:40;96766.97;;;42.17;21.37
8061;BME280;4073;42.626;25.386;2022-08-19T11:34:09;96768.50;;;41.84;21.88
8061;BME280;4073;42.626;25.386;2022-08-19T11:36:38;96771.88;;;42.02;21.42
8061;BME280;4073;42.626;25.386;2022-08-19T11:39:06;96780.72;;;42.30;21.11
8061;BME280;4073;42.626;25.386;2022-08-19T11:41:33;96770.50;;;42.12;21.30
8061;BME280;4073;42.626;25.386;2022-08-19T11:43:59;96767.44;;;41.23;22.25
8061;BME280;4073;42.626;25.386;2022-08-19T11:46:26;96770.94;;;41.33;22.25
8061;BME280;4073;42.626;25.386;2022-08-19T11:48:58;96766.75;;;40.37;23.06
8061;BME280;4073;42.626;25.386;2022-08-19T11:51:25;96769.78;;;39.51;22.90
8061;BME280;4073;42.626;25.386;2022-08-19T11:53:52;96762.06;;;38.92;24.07
8061;BME280;4073;42.626;25.386;2022-08-19T11:56:18;96756.03;;;38.66;25.47
8061;BME280;4073;42.626;25.386;2022-08-19T11:58:44;96750.75;;;38.50;25.67
8061;BME280;4073;42.626;25.386;2022-08-19T12:01:12;96753.06;;;38.79;25.86
8061;BME280;4073;42.626;25.386;2022-08-19T12:03:40;96760.22;;;38.80;25.39
8061;BME280;4073;42.626;25.386;2022-08-19T12:06:10;96762.88;;;38.74;25.45
8061;BME280;4073;42.626;25.386;2022-08-19T12:08:37;96758.03;;;38.75;24.87
8061;BME280;4073;42.626;25.386;2022-08-19T12:11:03;96752.31;;;38.60;24.97
8061;BME280;4073;42.626;25.386;2022-08-19T12:13:30;96744.50;;;38.46;24.84
8061;BME280;4073;42.626;25.386;2022-08-19T12:15:56;96756.63;;;38.43;24.90
8061;BME280;4073;42.626;25.386;2022-08-19T12:18:23;96744.69;;;38.42;25.28
8061;BME280;4073;42.626;25.386;2022-08-19T12:20:50;96735.34;;;38.36;25.40
8061;BME280;4073;42.626;25.386;2022-08-19T12:23:17;96740.91;;;38.27;26.11
8061;BME280;4073;42.626;25.386;2022-08-19T12:25:47;96734.88;;;38.20;26.77
8061;BME280;4073;42.626;25.386;2022-08-19T12:28:21;96742.03;;;38.39;26.16
8061;BME280;4073;42.626;25.386;2022-08-19T12:30:48;96738.13;;;38.18;26.28
8061;BME280;4073;42.626;25.386;2022-08-19T12:33:15;96732.56;;;38.18;25.94
8061;BME280;4073;42.626;25.386;2022-08-19T12:35:42;96731.16;;;38.23;25.63
8061;BME280;4073;42.626;25.386;2022-08-19T12:38:08;96730.31;;;37.95;25.33
8061;BME280;4073;42.626;25.386;2022-08-19T12:40:33;96715.81;;;37.70;26.62
8061;BME280;4073;42.626;25.386;2022-08-19T12:42:59;96723.00;;;37.98;26.22
8061;BME280;4073;42.626;25.386;2022-08-19T12:45:24;96730.06;;;38.20;25.68
8061;BME280;4073;42.626;25.386;2022-08-19T12:47:50;96722.34;;;38.42;25.53
8061;BME280;4073;42.626;25.386;2022-08-19T12:50:18;96727.00;;;38.63;24.93
8061;BME280;4073;42.626;25.386;2022-08-19T12:52:44;96722.97;;;38.64;25.21
8061;BME280;4073;42.626;25.386;2022-08-19T12:55:10;96729.47;;;38.61;24.98
8061;BME280;4073;42.626;25.386;2022-08-19T12:57:36;96718.06;;;38.02;25.92
8061;BME280;4073;42.626;25.386;2022-08-19T13:00:17;96723.94;;;37.95;26.08
8061;BME280;4073;42.626;25.386;2022-08-19T13:02:47;96729.19;;;37.84;26.62
8061;BME280;4073;42.626;25.386;2022-08-19T13:05:17;96721.75;;;37.90;26.38
8061;BME280;4073;42.626;25.386;2022-08-19T13:07:45;96711.16;;;37.67;26.37
8061;BME280;4073;42.626;25.386;2022-08-19T13:10:13;96720.38;;;37.55;26.59
8061;BME280;4073;42.626;25.386;2022-08-19T13:12:41;96721.13;;;37.46;26.37
8061;BME280;4073;42.626;25.386;2022-08-19T13:15:08;96713.13;;;37.27;26.32
8061;BME280;4073;42.626;25.386;2022-08-19T13:17:35;96721.75;;;37.20;26.97
8061;BME280;4073;42.626;25.386;2022-08-19T13:20:01;96708.69;;;37.17;26.80
8061;BME280;4073;42.626;25.386;2022-08-19T13:22:26;96699.34;;;37.32;26.75
8061;BME280;4073;42.626;25.386;2022-08-19T13:24:52;96712.72;;;37.37;26.99
8061;BME280;4073;42.626;25.386;2022-08-19T13:27:18;96715.97;;;37.14;27.23